Terminal Aerodrome Forecast
Issued by NWS

Current Version | Previous Version | Text Only | Print | Product List | Glossary Off
Versions: 1 2 3 4 5 6 7 8 9 10 11 12 13 14 15 16 17 18 19 20 21 22 23

000
FTUS41 KPBZ 020837 AAA
TAFMGW
TAF AMD
KMGW 020837Z 0209/0306 VRB04KT 3SM -SHRA VCTS OVC035CB
      TEMPO 0209/0211 2SM SHRA OVC035
     FM021100 20007KT P6SM VCSH OVC020
     FM021500 25010G20KT P6SM VCSH BKN035
     FM022000 27008KT P6SM BKN080
     FM030400 34003KT P6SM VCSH OVC030=

USA.gov is the U.S. government's official web portal to all federal, state and local government web resources and services.